Norwalk, CT

2:05 PM EST on February 01, 2015 (GMT -0500)
Silvermine | Change Station
CLOSE
Current Station
Personal Weather Station
Location: Norwalk, CT
Elevation: 260 ft
Nearby Weather Stations
Active Advisory: Winter Storm Warning

Elev 260 ft 41.13 °N, 73.45 °W | Updated 3 seconds ago

Partly Cloudy
Partly Cloudy
35.4 °F
Feels Like 32 °F
N
4.4
Wind Variable Wind from NNW
Gusts 5.8 mph

Today
High -- | Low -- °F
--% Chance of Precip.
Yesterday
High -- | Low -- °F
Precip. -- in
7:04 AM 5:10 PM
Waxing Gibbous, 96% visible
Pressure 30.14 in
Visibility 10.0 miles
Clouds Few 3700 ft
Mostly Cloudy 8500 ft
Windchill 32 °F
Dew Point 20 °F
Humidity 54%
Rainfall 0.00 in
Snow Depth Not available.
UV 0.0 out of 12
Pollen .10 out of 12
Air Quality Not available.
Flu Activity Not available.
METAR KHPN 011856Z 29009KT 10SM FEW037 BKN085 01/M07 A3011 RMK AO2 SLP206 T00111072

More Conditions Fewer Conditions

Pressure 30.14 in
Visibility 10.0 miles
Clouds Few 3700 ft
Mostly Cloudy 8500 ft
Windchill 32 °F
Dew Point 20 °F
Humidity 54%
Rainfall 0.00 in
Snow Depth Not available.
UV 0.0 out of 12
Pollen .10 out of 12
Air Quality Not available.
Flu Activity Not available.
METAR KHPN 011856Z 29009KT 10SM FEW037 BKN085 01/M07 A3011 RMK AO2 SLP206 T00111072

More Conditions Fewer Conditions

10-Day Weather Forecast

Almanac

Astronomy

Feb. 01, 2015 Rise Set
Actual Time
Civil Twilight
Nautical Twilight
Astronomical Twilight
Moon
Length of Visible Light
Length of Day
Tomorrow will be .
, % of the Moon is Illuminated

Today's Extremes

State Highs State Lows

Community

WunderPhotos

Upload Photos

1,792,448 photos uploaded!

WunderBlogs® & News

Nearby

Air Quality

  Air Quality AQ Index Pollutant
Not available.

Snow Depth

Station Depth Elevation

Earthquake Activity

City Distance Mag. Time & Date
Minimum magnitude displayed is 2.5.

Coastal Water Temperatures

Place Temperature

Nearby Weather Stations